sensor_id;sensor_type;location;lat;lon;timestamp;temperature;humidity
42833;DHT22;64089;51.478;5.692;2024-02-26T00:01:37;6.80;99.90
42833;DHT22;64089;51.478;5.692;2024-02-26T00:04:03;6.80;99.90
42833;DHT22;64089;51.478;5.692;2024-02-26T00:06:29;6.80;99.90
42833;DHT22;64089;51.478;5.692;2024-02-26T00:08:55;6.80;99.90
42833;DHT22;64089;51.478;5.692;2024-02-26T00:11:21;6.80;99.90
42833;DHT22;64089;51.478;5.692;2024-02-26T00:13:46;6.80;99.90
42833;DHT22;64089;51.478;5.692;2024-02-26T00:16:12;6.80;99.90
42833;DHT22;64089;51.478;5.692;2024-02-26T00:18:40;6.80;99.90
42833;DHT22;64089;51.478;5.692;2024-02-26T00:21:06;6.80;99.90
42833;DHT22;64089;51.478;5.692;2024-02-26T00:23:32;6.70;99.90
42833;DHT22;64089;51.478;5.692;2024-02-26T00:25:57;6.70;99.90
42833;DHT22;64089;51.478;5.692;2024-02-26T00:28:24;6.70;99.90
42833;DHT22;64089;51.478;5.692;2024-02-26T00:30:50;6.70;99.90
42833;DHT22;64089;51.478;5.692;2024-02-26T00:33:21;6.70;99.90
42833;DHT22;64089;51.478;5.692;2024-02-26T00:35:47;6.70;99.90
42833;DHT22;64089;51.478;5.692;2024-02-26T00:38:12;6.70;99.90
42833;DHT22;64089;51.478;5.692;2024-02-26T00:40:41;6.70;99.90
42833;DHT22;64089;51.478;5.692;2024-02-26T00:43:10;6.70;99.90
42833;DHT22;64089;51.478;5.692;2024-02-26T00:45:35;6.70;99.90
42833;DHT22;64089;51.478;5.692;2024-02-26T00:48:01;6.70;99.90
42833;DHT22;64089;51.478;5.692;2024-02-26T00:50:39;6.70;99.90
42833;DHT22;64089;51.478;5.692;2024-02-26T00:53:05;6.60;99.90
42833;DHT22;64089;51.478;5.692;2024-02-26T00:55:30;6.60;99.90
42833;DHT22;64089;51.478;5.692;2024-02-26T00:57:56;6.70;99.90
42833;DHT22;64089;51.478;5.692;2024-02-26T01:00:22;6.70;99.90
42833;DHT22;64089;51.478;5.692;2024-02-26T01:02:48;6.70;99.90
42833;DHT22;64089;51.478;5.692;2024-02-26T01:05:14;6.70;99.90
42833;DHT22;64089;51.478;5.692;2024-02-26T01:07:40;6.60;99.90
42833;DHT22;64089;51.478;5.692;2024-02-26T01:10:06;6.60;99.90
42833;DHT22;64089;51.478;5.692;2024-02-26T01:12:33;6.60;99.90
42833;DHT22;64089;51.478;5.692;2024-02-26T01:14:59;6.60;99.90
42833;DHT22;64089;51.478;5.692;2024-02-26T01:17:25;6.60;99.90
42833;DHT22;64089;51.478;5.692;2024-02-26T01:19:51;6.50;99.90
42833;DHT22;64089;51.478;5.692;2024-02-26T01:22:18;6.50;99.90
42833;DHT22;64089;51.478;5.692;2024-02-26T01:24:44;6.50;99.90
42833;DHT22;64089;51.478;5.692;2024-02-26T01:27:09;6.50;99.90
42833;DHT22;64089;51.478;5.692;2024-02-26T01:29:35;6.50;99.90
42833;DHT22;64089;51.478;5.692;2024-02-26T01:32:00;6.50;99.90
42833;DHT22;64089;51.478;5.692;2024-02-26T01:34:26;6.50;99.90
42833;DHT22;64089;51.478;5.692;2024-02-26T01:36:52;6.40;99.90
42833;DHT22;64089;51.478;5.692;2024-02-26T01:39:17;6.40;99.90
42833;DHT22;64089;51.478;5.692;2024-02-26T01:41:43;6.40;99.90
42833;DHT22;64089;51.478;5.692;2024-02-26T01:44:12;6.40;99.90
42833;DHT22;64089;51.478;5.692;2024-02-26T01:46:42;6.40;99.90
42833;DHT22;64089;51.478;5.692;2024-02-26T01:49:09;6.30;99.90
42833;DHT22;64089;51.478;5.692;2024-02-26T01:51:37;6.30;99.90
42833;DHT22;64089;51.478;5.692;2024-02-26T01:54:04;6.30;99.90
42833;DHT22;64089;51.478;5.692;2024-02-26T01:56:30;6.30;99.90
42833;DHT22;64089;51.478;5.692;2024-02-26T01:59:00;6.30;99.90
42833;DHT22;64089;51.478;5.692;2024-02-26T02:01:29;6.30;99.90
42833;DHT22;64089;51.478;5.692;2024-02-26T02:03:57;6.30;99.90
42833;DHT22;64089;51.478;5.692;2024-02-26T02:06:23;6.30;99.90
42833;DHT22;64089;51.478;5.692;2024-02-26T02:08:49;6.30;99.90
42833;DHT22;64089;51.478;5.692;2024-02-26T02:11:15;6.30;99.90
42833;DHT22;64089;51.478;5.692;2024-02-26T02:13:41;6.30;99.90
42833;DHT22;64089;51.478;5.692;2024-02-26T02:16:07;6.30;99.90
42833;DHT22;64089;51.478;5.692;2024-02-26T02:18:33;6.30;99.90
42833;DHT22;64089;51.478;5.692;2024-02-26T02:21:02;6.20;99.90
42833;DHT22;64089;51.478;5.692;2024-02-26T02:23:28;6.20;99.90
42833;DHT22;64089;51.478;5.692;2024-02-26T02:25:54;6.20;99.90
42833;DHT22;64089;51.478;5.692;2024-02-26T02:28:22;6.10;99.90
42833;DHT22;64089;51.478;5.692;2024-02-26T02:30:48;6.10;99.90
42833;DHT22;64089;51.478;5.692;2024-02-26T02:33:15;6.00;99.90
42833;DHT22;64089;51.478;5.692;2024-02-26T02:35:41;6.00;99.90
42833;DHT22;64089;51.478;5.692;2024-02-26T02:38:06;5.90;99.90
42833;DHT22;64089;51.478;5.692;2024-02-26T02:40:32;5.90;99.90
42833;DHT22;64089;51.478;5.692;2024-02-26T02:42:58;5.90;99.90
42833;DHT22;64089;51.478;5.692;2024-02-26T02:45:24;5.80;99.90
42833;DHT22;64089;51.478;5.692;2024-02-26T02:47:49;5.80;99.90
42833;DHT22;64089;51.478;5.692;2024-02-26T02:50:15;5.90;99.90
42833;DHT22;64089;51.478;5.692;2024-02-26T02:52:41;5.90;99.90
42833;DHT22;64089;51.478;5.692;2024-02-26T02:55:07;5.80;99.90
42833;DHT22;64089;51.478;5.692;2024-02-26T02:57:33;5.80;99.90
42833;DHT22;64089;51.478;5.692;2024-02-26T02:59:58;5.80;99.90
42833;DHT22;64089;51.478;5.692;2024-02-26T03:02:24;5.80;99.90
42833;DHT22;64089;51.478;5.692;2024-02-26T03:04:52;5.80;99.90
42833;DHT22;64089;51.478;5.692;2024-02-26T03:07:18;5.70;99.90
42833;DHT22;64089;51.478;5.692;2024-02-26T03:09:44;5.70;99.90
42833;DHT22;64089;51.478;5.692;2024-02-26T03:12:09;5.70;99.90
42833;DHT22;64089;51.478;5.692;2024-02-26T03:14:35;5.70;99.90
42833;DHT22;64089;51.478;5.692;2024-02-26T03:17:00;5.70;99.90
42833;DHT22;64089;51.478;5.692;2024-02-26T03:19:26;5.70;99.90
42833;DHT22;64089;51.478;5.692;2024-02-26T03:21:52;5.70;99.90
42833;DHT22;64089;51.478;5.692;2024-02-26T03:24:17;5.70;99.90
42833;DHT22;64089;51.478;5.692;2024-02-26T03:26:43;5.70;99.90
42833;DHT22;64089;51.478;5.692;2024-02-26T03:29:09;5.70;99.90
42833;DHT22;64089;51.478;5.692;2024-02-26T03:31:34;5.60;99.90
42833;DHT22;64089;51.478;5.692;2024-02-26T03:34:00;5.60;99.90
42833;DHT22;64089;51.478;5.692;2024-02-26T03:36:25;5.70;99.90
42833;DHT22;64089;51.478;5.692;2024-02-26T03:38:52;5.60;99.90
42833;DHT22;64089;51.478;5.692;2024-02-26T03:41:17;5.60;99.90
42833;DHT22;64089;51.478;5.692;2024-02-26T03:43:43;5.60;99.90
42833;DHT22;64089;51.478;5.692;2024-02-26T03:46:10;5.60;99.90
42833;DHT22;64089;51.478;5.692;2024-02-26T03:48:37;5.60;99.90
42833;DHT22;64089;51.478;5.692;2024-02-26T03:51:03;5.60;99.90
42833;DHT22;64089;51.478;5.692;2024-02-26T03:53:29;5.60;99.90
42833;DHT22;64089;51.478;5.692;2024-02-26T03:55:55;5.60;99.90
42833;DHT22;64089;51.478;5.692;2024-02-26T03:58:21;5.60;99.90
42833;DHT22;64089;51.478;5.692;2024-02-26T04:00:46;5.50;99.90
42833;DHT22;64089;51.478;5.692;2024-02-26T04:03:15;5.50;99.90
42833;DHT22;64089;51.478;5.692;2024-02-26T04:05:41;5.50;99.90
42833;DHT22;64089;51.478;5.692;2024-02-26T04:08:06;5.50;99.90
42833;DHT22;64089;51.478;5.692;2024-02-26T04:10:36;5.50;99.90
42833;DHT22;64089;51.478;5.692;2024-02-26T04:13:04;5.50;99.90
42833;DHT22;64089;51.478;5.692;2024-02-26T04:15:31;5.50;99.90
42833;DHT22;64089;51.478;5.692;2024-02-26T04:17:57;5.50;99.90
42833;DHT22;64089;51.478;5.692;2024-02-26T04:20:22;5.50;99.90
42833;DHT22;64089;51.478;5.692;2024-02-26T04:22:48;5.50;99.90
42833;DHT22;64089;51.478;5.692;2024-02-26T04:25:13;5.50;99.90
42833;DHT22;64089;51.478;5.692;2024-02-26T04:27:39;5.50;99.90
42833;DHT22;64089;51.478;5.692;2024-02-26T04:30:06;5.50;99.90
42833;DHT22;64089;51.478;5.692;2024-02-26T04:32:32;5.40;99.90
42833;DHT22;64089;51.478;5.692;2024-02-26T04:34:57;5.40;99.90
42833;DHT22;64089;51.478;5.692;2024-02-26T04:37:23;5.50;99.90
42833;DHT22;64089;51.478;5.692;2024-02-26T04:39:48;5.50;99.90
42833;DHT22;64089;51.478;5.692;2024-02-26T04:42:14;5.40;99.90
42833;DHT22;64089;51.478;5.692;2024-02-26T04:44:40;5.40;99.90
42833;DHT22;64089;51.478;5.692;2024-02-26T04:47:05;5.40;99.90
42833;DHT22;64089;51.478;5.692;2024-02-26T04:49:32;5.40;99.90
42833;DHT22;64089;51.478;5.692;2024-02-26T04:51:59;5.40;99.90
42833;DHT22;64089;51.478;5.692;2024-02-26T04:54:24;5.40;99.90
42833;DHT22;64089;51.478;5.692;2024-02-26T04:56:50;5.40;99.90
42833;DHT22;64089;51.478;5.692;2024-02-26T04:59:16;5.50;99.90
42833;DHT22;64089;51.478;5.692;2024-02-26T05:01:41;5.40;99.90
42833;DHT22;64089;51.478;5.692;2024-02-26T05:04:07;5.40;99.90
42833;DHT22;64089;51.478;5.692;2024-02-26T05:06:32;5.40;99.90
42833;DHT22;64089;51.478;5.692;2024-02-26T05:08:58;5.40;99.90
42833;DHT22;64089;51.478;5.692;2024-02-26T05:11:23;5.40;99.90
42833;DHT22;64089;51.478;5.692;2024-02-26T05:13:49;5.40;99.90
42833;DHT22;64089;51.478;5.692;2024-02-26T05:16:15;5.40;99.90
42833;DHT22;64089;51.478;5.692;2024-02-26T05:18:40;5.40;99.90
42833;DHT22;64089;51.478;5.692;2024-02-26T05:21:06;5.40;99.90
42833;DHT22;64089;51.478;5.692;2024-02-26T05:23:31;5.40;99.90
42833;DHT22;64089;51.478;5.692;2024-02-26T05:25:57;5.40;99.90
42833;DHT22;64089;51.478;5.692;2024-02-26T05:28:23;5.40;99.90
42833;DHT22;64089;51.478;5.692;2024-02-26T05:30:48;5.40;99.90
42833;DHT22;64089;51.478;5.692;2024-02-26T05:33:14;5.40;99.90
42833;DHT22;64089;51.478;5.692;2024-02-26T05:35:40;5.40;99.90
42833;DHT22;64089;51.478;5.692;2024-02-26T05:38:05;5.50;99.90
42833;DHT22;64089;51.478;5.692;2024-02-26T05:40:31;5.40;99.90
42833;DHT22;64089;51.478;5.692;2024-02-26T05:42:57;5.50;99.90
42833;DHT22;64089;51.478;5.692;2024-02-26T05:45:22;5.50;99.90
42833;DHT22;64089;51.478;5.692;2024-02-26T05:47:48;5.50;99.90
42833;DHT22;64089;51.478;5.692;2024-02-26T05:50:15;5.50;99.90
42833;DHT22;64089;51.478;5.692;2024-02-26T05:52:41;5.40;99.90
42833;DHT22;64089;51.478;5.692;2024-02-26T05:55:07;5.50;99.90
42833;DHT22;64089;51.478;5.692;2024-02-26T05:57:36;5.50;99.90
42833;DHT22;64089;51.478;5.692;2024-02-26T06:00:02;5.40;99.90
42833;DHT22;64089;51.478;5.692;2024-02-26T06:02:31;5.50;99.90
42833;DHT22;64089;51.478;5.692;2024-02-26T06:04:57;5.50;99.90
42833;DHT22;64089;51.478;5.692;2024-02-26T06:07:23;5.40;99.90
42833;DHT22;64089;51.478;5.692;2024-02-26T06:09:48;5.50;99.90
42833;DHT22;64089;51.478;5.692;2024-02-26T06:12:14;5.40;99.90
42833;DHT22;64089;51.478;5.692;2024-02-26T06:14:41;5.40;99.90
42833;DHT22;64089;51.478;5.692;2024-02-26T06:17:07;5.40;99.90
42833;DHT22;64089;51.478;5.692;2024-02-26T06:19:32;5.50;99.90
42833;DHT22;64089;51.478;5.692;2024-02-26T06:21:58;5.40;99.90
42833;DHT22;64089;51.478;5.692;2024-02-26T06:24:23;5.40;99.90
42833;DHT22;64089;51.478;5.692;2024-02-26T06:26:49;5.40;99.90
42833;DHT22;64089;51.478;5.692;2024-02-26T06:29:15;5.40;99.90
42833;DHT22;64089;51.478;5.692;2024-02-26T06:31:41;5.40;99.90
42833;DHT22;64089;51.478;5.692;2024-02-26T06:34:06;5.40;99.90
42833;DHT22;64089;51.478;5.692;2024-02-26T06:36:32;5.40;99.90
42833;DHT22;64089;51.478;5.692;2024-02-26T06:38:58;5.30;99.90
42833;DHT22;64089;51.478;5.692;2024-02-26T06:41:24;5.30;99.90
42833;DHT22;64089;51.478;5.692;2024-02-26T06:43:55;5.30;99.90
42833;DHT22;64089;51.478;5.692;2024-02-26T06:46:20;5.40;99.90
42833;DHT22;64089;51.478;5.692;2024-02-26T06:48:48;5.30;99.90
42833;DHT22;64089;51.478;5.692;2024-02-26T06:51:14;5.30;99.90
42833;DHT22;64089;51.478;5.692;2024-02-26T06:53:42;5.30;99.90
42833;DHT22;64089;51.478;5.692;2024-02-26T06:56:08;5.30;99.90
42833;DHT22;64089;51.478;5.692;2024-02-26T06:58:33;5.30;99.90
42833;DHT22;64089;51.478;5.692;2024-02-26T07:00:59;5.30;99.90
42833;DHT22;64089;51.478;5.692;2024-02-26T07:03:25;5.30;99.90
42833;DHT22;64089;51.478;5.692;2024-02-26T07:05:51;5.20;99.90
42833;DHT22;64089;51.478;5.692;2024-02-26T07:08:17;5.30;99.90
42833;DHT22;64089;51.478;5.692;2024-02-26T07:10:43;5.30;99.90
42833;DHT22;64089;51.478;5.692;2024-02-26T07:13:08;5.30;99.90
42833;DHT22;64089;51.478;5.692;2024-02-26T07:15:34;5.30;99.90
42833;DHT22;64089;51.478;5.692;2024-02-26T07:18:00;5.30;99.90
42833;DHT22;64089;51.478;5.692;2024-02-26T07:20:29;5.30;99.90
42833;DHT22;64089;51.478;5.692;2024-02-26T07:22:55;5.30;99.90
42833;DHT22;64089;51.478;5.692;2024-02-26T07:25:21;5.30;99.90
42833;DHT22;64089;51.478;5.692;2024-02-26T07:27:47;5.30;99.90
42833;DHT22;64089;51.478;5.692;2024-02-26T07:30:13;5.30;99.90
42833;DHT22;64089;51.478;5.692;2024-02-26T07:32:43;5.20;99.90
42833;DHT22;64089;51.478;5.692;2024-02-26T07:35:08;5.30;99.90
42833;DHT22;64089;51.478;5.692;2024-02-26T07:37:34;5.20;99.90
42833;DHT22;64089;51.478;5.692;2024-02-26T07:40:00;5.20;99.90
42833;DHT22;64089;51.478;5.692;2024-02-26T07:42:26;5.20;99.90
42833;DHT22;64089;51.478;5.692;2024-02-26T07:44:52;5.30;99.90
42833;DHT22;64089;51.478;5.692;2024-02-26T07:47:18;5.30;99.90
42833;DHT22;64089;51.478;5.692;2024-02-26T07:49:44;5.30;99.90
42833;DHT22;64089;51.478;5.692;2024-02-26T07:52:10;5.30;99.90
42833;DHT22;64089;51.478;5.692;2024-02-26T07:54:35;5.20;99.90
42833;DHT22;64089;51.478;5.692;2024-02-26T07:57:01;5.30;99.90
42833;DHT22;64089;51.478;5.692;2024-02-26T07:59:31;5.20;99.90
42833;DHT22;64089;51.478;5.692;2024-02-26T08:01:56;5.20;99.90
42833;DHT22;64089;51.478;5.692;2024-02-26T08:04:22;5.30;99.90
42833;DHT22;64089;51.478;5.692;2024-02-26T08:06:47;5.30;99.90
42833;DHT22;64089;51.478;5.692;2024-02-26T08:09:13;5.30;99.90
42833;DHT22;64089;51.478;5.692;2024-02-26T08:11:39;5.30;99.90
42833;DHT22;64089;51.478;5.692;2024-02-26T08:14:05;5.40;99.90
42833;DHT22;64089;51.478;5.692;2024-02-26T08:16:30;5.30;99.90
42833;DHT22;64089;51.478;5.692;2024-02-26T08:18:56;5.40;99.90
42833;DHT22;64089;51.478;5.692;2024-02-26T08:21:21;5.30;99.90
42833;DHT22;64089;51.478;5.692;2024-02-26T08:23:47;5.30;99.90
42833;DHT22;64089;51.478;5.692;2024-02-26T08:26:13;5.40;99.90
42833;DHT22;64089;51.478;5.692;2024-02-26T08:28:41;5.30;99.90
42833;DHT22;64089;51.478;5.692;2024-02-26T08:31:07;5.30;99.90
42833;DHT22;64089;51.478;5.692;2024-02-26T08:33:33;5.30;99.90
42833;DHT22;64089;51.478;5.692;2024-02-26T08:36:04;5.30;99.90
42833;DHT22;64089;51.478;5.692;2024-02-26T08:38:30;5.30;99.90
42833;DHT22;64089;51.478;5.692;2024-02-26T08:40:56;5.30;99.90
42833;DHT22;64089;51.478;5.692;2024-02-26T08:43:21;5.40;99.90
42833;DHT22;64089;51.478;5.692;2024-02-26T08:45:47;5.30;99.90
42833;DHT22;64089;51.478;5.692;2024-02-26T08:48:13;5.40;99.90
42833;DHT22;64089;51.478;5.692;2024-02-26T08:50:41;5.30;99.90
42833;DHT22;64089;51.478;5.692;2024-02-26T08:53:07;5.30;99.90
42833;DHT22;64089;51.478;5.692;2024-02-26T08:55:32;5.30;99.90
42833;DHT22;64089;51.478;5.692;2024-02-26T08:57:59;5.30;99.90
42833;DHT22;64089;51.478;5.692;2024-02-26T09:00:24;5.30;99.90
42833;DHT22;64089;51.478;5.692;2024-02-26T09:02:50;5.40;99.90
42833;DHT22;64089;51.478;5.692;2024-02-26T09:05:16;5.40;99.90
42833;DHT22;64089;51.478;5.692;2024-02-26T09:07:41;5.40;99.90
42833;DHT22;64089;51.478;5.692;2024-02-26T09:10:07;5.30;99.90
42833;DHT22;64089;51.478;5.692;2024-02-26T09:12:36;5.30;99.90
42833;DHT22;64089;51.478;5.692;2024-02-26T09:15:03;5.30;99.90
42833;DHT22;64089;51.478;5.692;2024-02-26T09:17:28;5.30;99.90
42833;DHT22;64089;51.478;5.692;2024-02-26T09:19:54;5.30;99.90
42833;DHT22;64089;51.478;5.692;2024-02-26T09:22:20;5.30;99.90
42833;DHT22;64089;51.478;5.692;2024-02-26T09:24:46;5.30;99.90
42833;DHT22;64089;51.478;5.692;2024-02-26T09:27:12;5.30;99.90
42833;DHT22;64089;51.478;5.692;2024-02-26T09:29:37;5.30;99.90
42833;DHT22;64089;51.478;5.692;2024-02-26T09:32:03;5.30;99.90
42833;DHT22;64089;51.478;5.692;2024-02-26T09:34:29;5.30;99.90
42833;DHT22;64089;51.478;5.692;2024-02-26T09:36:54;5.30;99.90
42833;DHT22;64089;51.478;5.692;2024-02-26T09:39:20;5.30;99.90
42833;DHT22;64089;51.478;5.692;2024-02-26T09:41:48;5.30;99.90
42833;DHT22;64089;51.478;5.692;2024-02-26T09:44:19;5.30;99.90
42833;DHT22;64089;51.478;5.692;2024-02-26T09:46:47;5.40;99.90
42833;DHT22;64089;51.478;5.692;2024-02-26T09:49:15;5.30;99.90
42833;DHT22;64089;51.478;5.692;2024-02-26T09:51:41;5.40;99.90
42833;DHT22;64089;51.478;5.692;2024-02-26T09:54:09;5.40;99.90
42833;DHT22;64089;51.478;5.692;2024-02-26T09:56:37;5.30;99.90
42833;DHT22;64089;51.478;5.692;2024-02-26T09:59:06;5.30;99.90
42833;DHT22;64089;51.478;5.692;2024-02-26T10:01:36;5.40;99.90
42833;DHT22;64089;51.478;5.692;2024-02-26T10:04:04;5.30;99.90
42833;DHT22;64089;51.478;5.692;2024-02-26T10:06:30;5.40;99.90
42833;DHT22;64089;51.478;5.692;2024-02-26T10:08:56;5.40;99.90
42833;DHT22;64089;51.478;5.692;2024-02-26T10:11:24;5.50;99.90
42833;DHT22;64089;51.478;5.692;2024-02-26T10:13:49;5.50;99.90
42833;DHT22;64089;51.478;5.692;2024-02-26T10:16:16;5.50;99.90
42833;DHT22;64089;51.478;5.692;2024-02-26T10:18:59;5.50;99.90
42833;DHT22;64089;51.478;5.692;2024-02-26T10:21:25;5.60;99.90
42833;DHT22;64089;51.478;5.692;2024-02-26T10:23:51;5.60;99.90
42833;DHT22;64089;51.478;5.692;2024-02-26T10:26:17;5.50;99.90
42833;DHT22;64089;51.478;5.692;2024-02-26T10:28:44;5.50;99.90
42833;DHT22;64089;51.478;5.692;2024-02-26T10:31:10;5.50;99.90
42833;DHT22;64089;51.478;5.692;2024-02-26T10:33:37;5.50;99.90
42833;DHT22;64089;51.478;5.692;2024-02-26T10:36:04;5.50;99.90
42833;DHT22;64089;51.478;5.692;2024-02-26T10:38:32;5.50;99.90
42833;DHT22;64089;51.478;5.692;2024-02-26T10:40:57;5.50;99.90
42833;DHT22;64089;51.478;5.692;2024-02-26T10:43:24;5.50;99.90
42833;DHT22;64089;51.478;5.692;2024-02-26T10:45:50;5.50;99.90
42833;DHT22;64089;51.478;5.692;2024-02-26T10:48:16;5.50;99.90
42833;DHT22;64089;51.478;5.692;2024-02-26T10:50:43;5.40;99.90
42833;DHT22;64089;51.478;5.692;2024-02-26T10:53:17;5.50;99.90
42833;DHT22;64089;51.478;5.692;2024-02-26T10:55:48;5.50;99.90
42833;DHT22;64089;51.478;5.692;2024-02-26T10:58:14;5.50;99.90
42833;DHT22;64089;51.478;5.692;2024-02-26T11:00:43;5.50;99.90
42833;DHT22;64089;51.478;5.692;2024-02-26T11:03:09;5.60;99.90
42833;DHT22;64089;51.478;5.692;2024-02-26T11:05:36;5.50;99.90
42833;DHT22;64089;51.478;5.692;2024-02-26T11:08:04;5.60;99.90
42833;DHT22;64089;51.478;5.692;2024-02-26T11:10:31;5.50;99.90
42833;DHT22;64089;51.478;5.692;2024-02-26T11:12:59;5.50;99.90
42833;DHT22;64089;51.478;5.692;2024-02-26T11:15:25;5.50;99.90
42833;DHT22;64089;51.478;5.692;2024-02-26T11:17:52;5.60;99.90
42833;DHT22;64089;51.478;5.692;2024-02-26T11:20:20;5.50;99.90
42833;DHT22;64089;51.478;5.692;2024-02-26T11:22:45;5.50;99.90
42833;DHT22;64089;51.478;5.692;2024-02-26T11:25:11;5.60;99.90
42833;DHT22;64089;51.478;5.692;2024-02-26T11:27:48;5.50;99.90
42833;DHT22;64089;51.478;5.692;2024-02-26T11:30:15;5.60;99.90
42833;DHT22;64089;51.478;5.692;2024-02-26T11:32:44;5.60;99.90
42833;DHT22;64089;51.478;5.692;2024-02-26T11:35:11;5.60;99.90
42833;DHT22;64089;51.478;5.692;2024-02-26T11:37:41;5.60;99.90
42833;DHT22;64089;51.478;5.692;2024-02-26T11:40:13;5.60;99.90
42833;DHT22;64089;51.478;5.692;2024-02-26T11:42:44;5.60;99.90
42833;DHT22;64089;51.478;5.692;2024-02-26T11:48:24;5.60;99.90
42833;DHT22;64089;51.478;5.692;2024-02-26T11:50:52;5.60;99.90
42833;DHT22;64089;51.478;5.692;2024-02-26T11:53:24;5.70;99.90
42833;DHT22;64089;51.478;5.692;2024-02-26T11:59:11;5.70;99.90
42833;DHT22;64089;51.478;5.692;2024-02-26T12:01:41;5.70;99.90
42833;DHT22;64089;51.478;5.692;2024-02-26T12:04:15;5.70;99.90
42833;DHT22;64089;51.478;5.692;2024-02-26T12:06:43;5.70;99.90
42833;DHT22;64089;51.478;5.692;2024-02-26T12:09:09;5.60;99.90
42833;DHT22;64089;51.478;5.692;2024-02-26T12:11:42;5.60;99.90
42833;DHT22;64089;51.478;5.692;2024-02-26T12:14:08;5.70;99.90
42833;DHT22;64089;51.478;5.692;2024-02-26T12:16:41;5.70;99.90
42833;DHT22;64089;51.478;5.692;2024-02-26T12:19:10;5.70;99.90
42833;DHT22;64089;51.478;5.692;2024-02-26T12:21:37;5.70;99.90
42833;DHT22;64089;51.478;5.692;2024-02-26T12:24:13;5.70;99.90
42833;DHT22;64089;51.478;5.692;2024-02-26T12:26:40;5.70;99.90
42833;DHT22;64089;51.478;5.692;2024-02-26T12:29:06;5.70;99.90
42833;DHT22;64089;51.478;5.692;2024-02-26T12:31:35;5.70;99.90
42833;DHT22;64089;51.478;5.692;2024-02-26T12:34:06;5.70;99.90
42833;DHT22;64089;51.478;5.692;2024-02-26T12:36:34;5.70;99.90
42833;DHT22;64089;51.478;5.692;2024-02-26T12:39:00;5.70;99.90
42833;DHT22;64089;51.478;5.692;2024-02-26T12:41:27;5.70;99.90
42833;DHT22;64089;51.478;5.692;2024-02-26T12:43:54;5.80;99.90
42833;DHT22;64089;51.478;5.692;2024-02-26T12:46:20;5.80;99.90
42833;DHT22;64089;51.478;5.692;2024-02-26T12:48:46;5.70;99.90
42833;DHT22;64089;51.478;5.692;2024-02-26T12:51:14;5.80;99.90
42833;DHT22;64089;51.478;5.692;2024-02-26T12:53:41;5.70;99.90
42833;DHT22;64089;51.478;5.692;2024-02-26T12:56:10;5.80;99.90
42833;DHT22;64089;51.478;5.692;2024-02-26T12:58:39;5.80;99.90
42833;DHT22;64089;51.478;5.692;2024-02-26T13:01:05;5.80;99.90
42833;DHT22;64089;51.478;5.692;2024-02-26T13:03:32;5.80;99.90
42833;DHT22;64089;51.478;5.692;2024-02-26T13:05:59;5.80;99.90
42833;DHT22;64089;51.478;5.692;2024-02-26T13:08:25;5.80;99.90
42833;DHT22;64089;51.478;5.692;2024-02-26T13:10:51;5.90;99.90
42833;DHT22;64089;51.478;5.692;2024-02-26T13:13:17;5.90;99.90
42833;DHT22;64089;51.478;5.692;2024-02-26T13:15:44;5.90;99.90
42833;DHT22;64089;51.478;5.692;2024-02-26T13:18:13;5.90;99.90
42833;DHT22;64089;51.478;5.692;2024-02-26T13:20:40;5.80;99.90
42833;DHT22;64089;51.478;5.692;2024-02-26T13:23:09;5.90;99.90
42833;DHT22;64089;51.478;5.692;2024-02-26T13:25:36;5.90;99.90
42833;DHT22;64089;51.478;5.692;2024-02-26T13:28:18;5.80;99.90
42833;DHT22;64089;51.478;5.692;2024-02-26T13:30:55;5.90;99.90
42833;DHT22;64089;51.478;5.692;2024-02-26T13:33:23;5.90;99.90
42833;DHT22;64089;51.478;5.692;2024-02-26T13:35:48;5.80;99.90
42833;DHT22;64089;51.478;5.692;2024-02-26T13:38:14;5.80;99.90
42833;DHT22;64089;51.478;5.692;2024-02-26T13:40:40;5.80;99.90
42833;DHT22;64089;51.478;5.692;2024-02-26T13:43:06;5.80;99.90
42833;DHT22;64089;51.478;5.692;2024-02-26T13:45:35;5.80;99.90
42833;DHT22;64089;51.478;5.692;2024-02-26T13:48:03;5.80;99.90
42833;DHT22;64089;51.478;5.692;2024-02-26T13:50:29;5.80;99.90
42833;DHT22;64089;51.478;5.692;2024-02-26T13:52:55;5.80;99.90
42833;DHT22;64089;51.478;5.692;2024-02-26T13:55:31;5.70;99.90
42833;DHT22;64089;51.478;5.692;2024-02-26T13:57:58;5.70;99.90
42833;DHT22;64089;51.478;5.692;2024-02-26T14:00:25;5.70;99.90
42833;DHT22;64089;51.478;5.692;2024-02-26T14:02:51;5.80;99.90
42833;DHT22;64089;51.478;5.692;2024-02-26T14:05:17;5.80;99.90
42833;DHT22;64089;51.478;5.692;2024-02-26T14:07:43;5.70;99.90
42833;DHT22;64089;51.478;5.692;2024-02-26T14:10:09;5.70;99.90
42833;DHT22;64089;51.478;5.692;2024-02-26T14:12:37;5.70;99.90
42833;DHT22;64089;51.478;5.692;2024-02-26T14:15:03;5.70;99.90
42833;DHT22;64089;51.478;5.692;2024-02-26T14:17:30;5.70;99.90
42833;DHT22;64089;51.478;5.692;2024-02-26T14:19:56;5.70;99.90
42833;DHT22;64089;51.478;5.692;2024-02-26T14:22:22;5.80;99.90
42833;DHT22;64089;51.478;5.692;2024-02-26T14:24:47;5.80;99.90
42833;DHT22;64089;51.478;5.692;2024-02-26T14:27:13;5.80;99.90
42833;DHT22;64089;51.478;5.692;2024-02-26T14:29:45;5.80;99.90
42833;DHT22;64089;51.478;5.692;2024-02-26T14:32:11;5.80;99.90
42833;DHT22;64089;51.478;5.692;2024-02-26T14:34:36;5.80;99.90
42833;DHT22;64089;51.478;5.692;2024-02-26T14:37:02;5.80;99.90
42833;DHT22;64089;51.478;5.692;2024-02-26T14:39:28;5.80;99.90
42833;DHT22;64089;51.478;5.692;2024-02-26T14:41:55;5.80;99.90
42833;DHT22;64089;51.478;5.692;2024-02-26T14:44:20;5.80;99.90
42833;DHT22;64089;51.478;5.692;2024-02-26T14:46:46;5.80;99.90
42833;DHT22;64089;51.478;5.692;2024-02-26T14:49:12;5.80;99.90
42833;DHT22;64089;51.478;5.692;2024-02-26T14:51:41;5.80;99.90
42833;DHT22;64089;51.478;5.692;2024-02-26T14:54:07;5.90;99.90
42833;DHT22;64089;51.478;5.692;2024-02-26T14:56:33;5.90;99.90
42833;DHT22;64089;51.478;5.692;2024-02-26T14:58:58;5.90;99.90
42833;DHT22;64089;51.478;5.692;2024-02-26T15:01:24;5.90;99.90
42833;DHT22;64089;51.478;5.692;2024-02-26T15:03:50;5.90;99.90
42833;DHT22;64089;51.478;5.692;2024-02-26T15:06:15;5.90;99.90
42833;DHT22;64089;51.478;5.692;2024-02-26T15:08:41;5.90;99.90
42833;DHT22;64089;51.478;5.692;2024-02-26T15:11:07;5.90;99.90
42833;DHT22;64089;51.478;5.692;2024-02-26T15:13:33;5.90;99.90
42833;DHT22;64089;51.478;5.692;2024-02-26T15:15:59;6.00;99.90
42833;DHT22;64089;51.478;5.692;2024-02-26T15:18:25;6.00;99.90
42833;DHT22;64089;51.478;5.692;2024-02-26T15:20:51;6.00;99.90
42833;DHT22;64089;51.478;5.692;2024-02-26T15:23:17;5.90;99.90
42833;DHT22;64089;51.478;5.692;2024-02-26T15:25:43;5.90;99.90
42833;DHT22;64089;51.478;5.692;2024-02-26T15:28:09;6.00;99.90
42833;DHT22;64089;51.478;5.692;2024-02-26T15:30:36;5.90;99.90
42833;DHT22;64089;51.478;5.692;2024-02-26T15:33:02;6.00;99.90
42833;DHT22;64089;51.478;5.692;2024-02-26T15:35:28;6.00;99.90
42833;DHT22;64089;51.478;5.692;2024-02-26T15:37:54;6.00;99.90
42833;DHT22;64089;51.478;5.692;2024-02-26T15:40:20;5.90;99.90
42833;DHT22;64089;51.478;5.692;2024-02-26T15:42:47;5.90;99.90
42833;DHT22;64089;51.478;5.692;2024-02-26T15:45:12;5.90;99.90
42833;DHT22;64089;51.478;5.692;2024-02-26T15:47:42;6.00;99.90